sensor_id;sensor_type;location;lat;lon;timestamp;P1;durP1;ratioP1;P2;durP2;ratioP2
8327;SDS011;4201;48.754;8.864;2022-12-13T00:01:40;40.10;;;22.15;;
8327;SDS011;4201;48.754;8.864;2022-12-13T00:04:06;46.65;;;24.67;;
8327;SDS011;4201;48.754;8.864;2022-12-13T00:06:34;43.78;;;24.42;;
8327;SDS011;4201;48.754;8.864;2022-12-13T00:09:00;39.97;;;20.55;;
8327;SDS011;4201;48.754;8.864;2022-12-13T00:11:27;40.17;;;22.00;;
8327;SDS011;4201;48.754;8.864;2022-12-13T00:13:55;41.83;;;23.52;;
8327;SDS011;4201;48.754;8.864;2022-12-13T00:16:22;43.03;;;24.35;;
8327;SDS011;4201;48.754;8.864;2022-12-13T00:18:49;45.42;;;22.63;;
8327;SDS011;4201;48.754;8.864;2022-12-13T00:21:17;39.97;;;22.35;;
8327;SDS011;4201;48.754;8.864;2022-12-13T00:23:45;38.85;;;22.88;;
8327;SDS011;4201;48.754;8.864;2022-12-13T00:26:12;37.42;;;22.13;;
8327;SDS011;4201;48.754;8.864;2022-12-13T00:28:39;37.85;;;22.33;;
8327;SDS011;4201;48.754;8.864;2022-12-13T00:31:06;40.15;;;21.58;;
8327;SDS011;4201;48.754;8.864;2022-12-13T00:33:33;38.47;;;21.65;;
8327;SDS011;4201;48.754;8.864;2022-12-13T00:36:01;40.80;;;23.60;;
8327;SDS011;4201;48.754;8.864;2022-12-13T00:38:28;40.78;;;21.35;;
8327;SDS011;4201;48.754;8.864;2022-12-13T00:40:54;40.53;;;22.38;;
8327;SDS011;4201;48.754;8.864;2022-12-13T00:43:21;37.13;;;21.90;;
8327;SDS011;4201;48.754;8.864;2022-12-13T00:45:47;42.30;;;22.23;;
8327;SDS011;4201;48.754;8.864;2022-12-13T00:48:14;43.30;;;23.88;;
8327;SDS011;4201;48.754;8.864;2022-12-13T00:50:41;36.13;;;22.70;;
8327;SDS011;4201;48.754;8.864;2022-12-13T00:53:08;37.35;;;21.95;;
8327;SDS011;4201;48.754;8.864;2022-12-13T00:55:38;37.92;;;21.95;;
8327;SDS011;4201;48.754;8.864;2022-12-13T00:58:05;41.10;;;22.10;;
8327;SDS011;4201;48.754;8.864;2022-12-13T01:00:31;40.90;;;22.00;;
8327;SDS011;4201;48.754;8.864;2022-12-13T01:02:57;43.35;;;23.23;;
8327;SDS011;4201;48.754;8.864;2022-12-13T01:05:25;41.75;;;20.65;;
8327;SDS011;4201;48.754;8.864;2022-12-13T01:07:51;37.78;;;20.33;;
8327;SDS011;4201;48.754;8.864;2022-12-13T01:10:17;39.75;;;21.02;;
8327;SDS011;4201;48.754;8.864;2022-12-13T01:12:44;38.28;;;21.15;;
8327;SDS011;4201;48.754;8.864;2022-12-13T01:15:11;36.55;;;21.10;;
8327;SDS011;4201;48.754;8.864;2022-12-13T01:17:37;33.08;;;21.10;;
8327;SDS011;4201;48.754;8.864;2022-12-13T01:20:04;41.88;;;21.20;;
8327;SDS011;4201;48.754;8.864;2022-12-13T01:22:32;37.83;;;22.58;;
8327;SDS011;4201;48.754;8.864;2022-12-13T01:24:59;36.10;;;21.52;;
8327;SDS011;4201;48.754;8.864;2022-12-13T01:27:25;35.35;;;22.20;;
8327;SDS011;4201;48.754;8.864;2022-12-13T01:29:51;43.72;;;23.10;;
8327;SDS011;4201;48.754;8.864;2022-12-13T01:32:17;35.03;;;21.83;;
8327;SDS011;4201;48.754;8.864;2022-12-13T01:34:44;36.92;;;22.02;;
8327;SDS011;4201;48.754;8.864;2022-12-13T01:37:10;36.40;;;19.58;;
8327;SDS011;4201;48.754;8.864;2022-12-13T01:39:38;29.95;;;18.02;;
8327;SDS011;4201;48.754;8.864;2022-12-13T01:42:04;37.28;;;21.38;;
8327;SDS011;4201;48.754;8.864;2022-12-13T01:47:15;31.77;;;19.83;;
8327;SDS011;4201;48.754;8.864;2022-12-13T01:49:43;40.80;;;20.60;;
8327;SDS011;4201;48.754;8.864;2022-12-13T01:52:10;34.15;;;19.40;;
8327;SDS011;4201;48.754;8.864;2022-12-13T01:54:40;32.85;;;20.05;;
8327;SDS011;4201;48.754;8.864;2022-12-13T01:57:07;38.00;;;21.75;;
8327;SDS011;4201;48.754;8.864;2022-12-13T01:59:35;34.92;;;20.90;;
8327;SDS011;4201;48.754;8.864;2022-12-13T02:02:03;40.05;;;22.48;;
8327;SDS011;4201;48.754;8.864;2022-12-13T02:04:30;38.08;;;23.00;;
8327;SDS011;4201;48.754;8.864;2022-12-13T02:07:01;40.80;;;22.67;;
8327;SDS011;4201;48.754;8.864;2022-12-13T02:09:27;42.38;;;23.60;;
8327;SDS011;4201;48.754;8.864;2022-12-13T02:11:55;46.83;;;23.25;;
8327;SDS011;4201;48.754;8.864;2022-12-13T02:14:21;40.65;;;23.15;;
8327;SDS011;4201;48.754;8.864;2022-12-13T02:16:50;43.83;;;22.85;;
8327;SDS011;4201;48.754;8.864;2022-12-13T02:19:41;42.70;;;22.52;;
8327;SDS011;4201;48.754;8.864;2022-12-13T02:22:16;40.50;;;22.67;;
8327;SDS011;4201;48.754;8.864;2022-12-13T02:25:04;42.47;;;22.90;;
8327;SDS011;4201;48.754;8.864;2022-12-13T02:27:40;37.95;;;22.85;;
8327;SDS011;4201;48.754;8.864;2022-12-13T02:30:21;41.55;;;21.80;;
8327;SDS011;4201;48.754;8.864;2022-12-13T02:32:51;48.22;;;24.55;;
8327;SDS011;4201;48.754;8.864;2022-12-13T02:35:22;39.83;;;22.48;;
8327;SDS011;4201;48.754;8.864;2022-12-13T02:37:53;43.53;;;24.00;;
8327;SDS011;4201;48.754;8.864;2022-12-13T02:40:24;40.53;;;23.60;;
8327;SDS011;4201;48.754;8.864;2022-12-13T02:42:53;43.53;;;25.33;;
8327;SDS011;4201;48.754;8.864;2022-12-13T02:45:24;45.00;;;25.30;;
8327;SDS011;4201;48.754;8.864;2022-12-13T02:47:53;42.10;;;23.80;;
8327;SDS011;4201;48.754;8.864;2022-12-13T02:50:20;45.35;;;23.02;;
8327;SDS011;4201;48.754;8.864;2022-12-13T02:52:47;41.45;;;23.63;;
8327;SDS011;4201;48.754;8.864;2022-12-13T02:55:14;40.15;;;22.13;;
8327;SDS011;4201;48.754;8.864;2022-12-13T02:57:41;41.22;;;20.70;;
8327;SDS011;4201;48.754;8.864;2022-12-13T03:00:09;34.47;;;21.17;;
8327;SDS011;4201;48.754;8.864;2022-12-13T03:02:41;46.00;;;22.73;;
8327;SDS011;4201;48.754;8.864;2022-12-13T03:05:13;44.72;;;22.67;;
8327;SDS011;4201;48.754;8.864;2022-12-13T03:08:02;48.88;;;19.98;;
8327;SDS011;4201;48.754;8.864;2022-12-13T03:10:32;42.10;;;23.30;;
8327;SDS011;4201;48.754;8.864;2022-12-13T03:13:02;38.60;;;20.88;;
8327;SDS011;4201;48.754;8.864;2022-12-13T03:15:50;32.60;;;19.17;;
8327;SDS011;4201;48.754;8.864;2022-12-13T03:18:20;38.88;;;20.23;;
8327;SDS011;4201;48.754;8.864;2022-12-13T03:20:48;41.30;;;22.50;;
8327;SDS011;4201;48.754;8.864;2022-12-13T03:23:15;39.08;;;19.50;;
8327;SDS011;4201;48.754;8.864;2022-12-13T03:25:41;47.65;;;22.83;;
8327;SDS011;4201;48.754;8.864;2022-12-13T03:28:09;41.00;;;21.10;;
8327;SDS011;4201;48.754;8.864;2022-12-13T03:30:36;34.75;;;19.60;;
8327;SDS011;4201;48.754;8.864;2022-12-13T03:33:03;32.97;;;20.60;;
8327;SDS011;4201;48.754;8.864;2022-12-13T03:35:31;39.38;;;21.70;;
8327;SDS011;4201;48.754;8.864;2022-12-13T03:37:57;38.35;;;21.55;;
8327;SDS011;4201;48.754;8.864;2022-12-13T03:40:25;33.63;;;19.13;;
8327;SDS011;4201;48.754;8.864;2022-12-13T03:42:52;33.95;;;20.70;;
8327;SDS011;4201;48.754;8.864;2022-12-13T03:45:18;34.55;;;20.92;;
8327;SDS011;4201;48.754;8.864;2022-12-13T03:47:45;44.08;;;22.65;;
8327;SDS011;4201;48.754;8.864;2022-12-13T03:50:11;38.97;;;20.10;;
8327;SDS011;4201;48.754;8.864;2022-12-13T03:52:39;202.60;;;42.28;;
8327;SDS011;4201;48.754;8.864;2022-12-13T03:55:05;42.67;;;22.27;;
8327;SDS011;4201;48.754;8.864;2022-12-13T03:57:31;38.25;;;22.55;;
8327;SDS011;4201;48.754;8.864;2022-12-13T03:59:58;41.13;;;23.45;;
8327;SDS011;4201;48.754;8.864;2022-12-13T04:02:24;42.40;;;21.70;;
8327;SDS011;4201;48.754;8.864;2022-12-13T04:04:50;49.35;;;22.77;;
8327;SDS011;4201;48.754;8.864;2022-12-13T04:07:17;42.80;;;22.67;;
8327;SDS011;4201;48.754;8.864;2022-12-13T04:09:44;42.92;;;22.92;;
8327;SDS011;4201;48.754;8.864;2022-12-13T04:12:10;42.53;;;22.65;;
8327;SDS011;4201;48.754;8.864;2022-12-13T04:14:54;38.67;;;22.10;;
8327;SDS011;4201;48.754;8.864;2022-12-13T04:17:21;49.13;;;23.35;;
8327;SDS011;4201;48.754;8.864;2022-12-13T04:19:47;39.22;;;21.45;;
8327;SDS011;4201;48.754;8.864;2022-12-13T04:22:13;45.75;;;21.75;;
8327;SDS011;4201;48.754;8.864;2022-12-13T04:24:39;36.97;;;21.08;;
8327;SDS011;4201;48.754;8.864;2022-12-13T04:27:07;38.78;;;20.92;;
8327;SDS011;4201;48.754;8.864;2022-12-13T04:29:33;38.08;;;21.52;;
8327;SDS011;4201;48.754;8.864;2022-12-13T04:31:59;42.80;;;22.27;;
8327;SDS011;4201;48.754;8.864;2022-12-13T04:34:26;38.28;;;22.02;;
8327;SDS011;4201;48.754;8.864;2022-12-13T04:36:52;43.05;;;21.20;;
8327;SDS011;4201;48.754;8.864;2022-12-13T04:39:18;48.00;;;22.40;;
8327;SDS011;4201;48.754;8.864;2022-12-13T08:03:14;42.35;;;26.98;;
8327;SDS011;4201;48.754;8.864;2022-12-13T08:21:37;46.80;;;28.08;;
8327;SDS011;4201;48.754;8.864;2022-12-13T08:24:04;52.50;;;30.05;;
8327;SDS011;4201;48.754;8.864;2022-12-13T08:26:30;49.85;;;28.70;;
8327;SDS011;4201;48.754;8.864;2022-12-13T08:28:56;50.22;;;30.20;;
8327;SDS011;4201;48.754;8.864;2022-12-13T08:31:23;64.43;;;29.85;;
8327;SDS011;4201;48.754;8.864;2022-12-13T08:33:50;49.35;;;27.90;;
8327;SDS011;4201;48.754;8.864;2022-12-13T08:36:16;50.72;;;28.63;;
8327;SDS011;4201;48.754;8.864;2022-12-13T08:38:44;53.83;;;28.75;;
8327;SDS011;4201;48.754;8.864;2022-12-13T08:41:11;56.03;;;27.65;;
8327;SDS011;4201;48.754;8.864;2022-12-13T08:43:37;51.85;;;28.70;;
8327;SDS011;4201;48.754;8.864;2022-12-13T08:46:04;63.60;;;29.90;;
8327;SDS011;4201;48.754;8.864;2022-12-13T08:48:31;52.22;;;33.55;;
8327;SDS011;4201;48.754;8.864;2022-12-13T08:50:58;57.15;;;30.20;;
8327;SDS011;4201;48.754;8.864;2022-12-13T08:53:25;56.13;;;30.23;;
8327;SDS011;4201;48.754;8.864;2022-12-13T08:55:53;45.67;;;28.50;;
8327;SDS011;4201;48.754;8.864;2022-12-13T08:58:19;48.67;;;29.67;;
8327;SDS011;4201;48.754;8.864;2022-12-13T09:00:45;56.53;;;32.35;;
8327;SDS011;4201;48.754;8.864;2022-12-13T09:03:12;57.72;;;31.08;;
8327;SDS011;4201;48.754;8.864;2022-12-13T09:05:38;59.45;;;31.35;;
8327;SDS011;4201;48.754;8.864;2022-12-13T09:08:05;47.85;;;30.30;;
8327;SDS011;4201;48.754;8.864;2022-12-13T09:10:32;57.33;;;33.13;;
8327;SDS011;4201;48.754;8.864;2022-12-13T09:12:59;62.58;;;36.50;;
8327;SDS011;4201;48.754;8.864;2022-12-13T09:15:26;65.72;;;35.45;;
8327;SDS011;4201;48.754;8.864;2022-12-13T09:17:52;79.70;;;41.33;;
8327;SDS011;4201;48.754;8.864;2022-12-13T09:20:19;73.35;;;37.55;;
8327;SDS011;4201;48.754;8.864;2022-12-13T09:22:45;84.15;;;44.55;;
8327;SDS011;4201;48.754;8.864;2022-12-13T09:25:11;77.90;;;39.08;;
8327;SDS011;4201;48.754;8.864;2022-12-13T09:27:38;85.90;;;42.58;;
8327;SDS011;4201;48.754;8.864;2022-12-13T09:30:06;77.70;;;38.95;;
8327;SDS011;4201;48.754;8.864;2022-12-13T09:32:33;71.88;;;40.92;;
8327;SDS011;4201;48.754;8.864;2022-12-13T09:34:59;85.30;;;42.78;;
8327;SDS011;4201;48.754;8.864;2022-12-13T09:37:25;86.10;;;42.35;;
8327;SDS011;4201;48.754;8.864;2022-12-13T09:39:52;77.63;;;39.75;;
8327;SDS011;4201;48.754;8.864;2022-12-13T09:42:19;69.60;;;37.00;;
8327;SDS011;4201;48.754;8.864;2022-12-13T09:44:48;120.15;;;53.83;;
8327;SDS011;4201;48.754;8.864;2022-12-13T09:47:18;98.55;;;50.53;;
8327;SDS011;4201;48.754;8.864;2022-12-13T09:49:48;194.25;;;89.45;;
8327;SDS011;4201;48.754;8.864;2022-12-13T09:52:14;120.03;;;57.05;;
8327;SDS011;4201;48.754;8.864;2022-12-13T09:54:42;86.78;;;44.08;;
8327;SDS011;4201;48.754;8.864;2022-12-13T09:57:12;83.35;;;41.00;;
8327;SDS011;4201;48.754;8.864;2022-12-13T09:59:40;77.22;;;39.08;;
8327;SDS011;4201;48.754;8.864;2022-12-13T10:02:11;71.45;;;36.67;;
8327;SDS011;4201;48.754;8.864;2022-12-13T10:04:40;62.25;;;30.80;;
8327;SDS011;4201;48.754;8.864;2022-12-13T10:07:07;58.20;;;34.20;;
8327;SDS011;4201;48.754;8.864;2022-12-13T10:09:37;45.40;;;23.70;;
8327;SDS011;4201;48.754;8.864;2022-12-13T10:12:03;40.40;;;23.63;;
8327;SDS011;4201;48.754;8.864;2022-12-13T10:14:31;42.40;;;22.93;;
8327;SDS011;4201;48.754;8.864;2022-12-13T10:17:01;45.10;;;25.67;;
8327;SDS011;4201;48.754;8.864;2022-12-13T10:19:31;48.40;;;26.33;;
8327;SDS011;4201;48.754;8.864;2022-12-13T10:22:00;40.53;;;24.10;;
8327;SDS011;4201;48.754;8.864;2022-12-13T10:24:27;45.88;;;25.98;;
8327;SDS011;4201;48.754;8.864;2022-12-13T10:26:55;39.35;;;23.90;;
8327;SDS011;4201;48.754;8.864;2022-12-13T10:29:24;41.78;;;23.17;;
8327;SDS011;4201;48.754;8.864;2022-12-13T10:31:51;42.63;;;23.38;;
8327;SDS011;4201;48.754;8.864;2022-12-13T10:34:21;49.00;;;25.33;;
8327;SDS011;4201;48.754;8.864;2022-12-13T10:36:48;42.40;;;24.47;;
8327;SDS011;4201;48.754;8.864;2022-12-13T10:39:17;36.10;;;22.43;;
8327;SDS011;4201;48.754;8.864;2022-12-13T10:41:44;42.67;;;24.93;;
8327;SDS011;4201;48.754;8.864;2022-12-13T10:44:18;42.22;;;22.02;;
8327;SDS011;4201;48.754;8.864;2022-12-13T10:46:53;45.40;;;24.30;;
8327;SDS011;4201;48.754;8.864;2022-12-13T10:49:25;36.37;;;21.00;;
8327;SDS011;4201;48.754;8.864;2022-12-13T10:52:00;41.47;;;23.13;;
8327;SDS011;4201;48.754;8.864;2022-12-13T10:54:28;38.77;;;22.70;;
8327;SDS011;4201;48.754;8.864;2022-12-13T10:56:55;37.77;;;23.07;;
8327;SDS011;4201;48.754;8.864;2022-12-13T10:59:26;42.70;;;27.60;;
8327;SDS011;4201;48.754;8.864;2022-12-13T11:01:55;45.43;;;30.20;;
8327;SDS011;4201;48.754;8.864;2022-12-13T11:04:23;47.57;;;26.77;;
8327;SDS011;4201;48.754;8.864;2022-12-13T11:06:51;49.50;;;26.10;;
8327;SDS011;4201;48.754;8.864;2022-12-13T11:09:23;44.10;;;24.30;;
8327;SDS011;4201;48.754;8.864;2022-12-13T11:11:51;43.63;;;24.80;;
8327;SDS011;4201;48.754;8.864;2022-12-13T11:14:18;46.27;;;25.00;;
8327;SDS011;4201;48.754;8.864;2022-12-13T11:16:48;41.90;;;22.90;;
8327;SDS011;4201;48.754;8.864;2022-12-13T11:19:15;48.50;;;24.40;;
8327;SDS011;4201;48.754;8.864;2022-12-13T11:21:45;48.77;;;22.63;;
8327;SDS011;4201;48.754;8.864;2022-12-13T11:24:14;41.47;;;23.30;;
8327;SDS011;4201;48.754;8.864;2022-12-13T11:26:42;47.00;;;25.60;;
8327;SDS011;4201;48.754;8.864;2022-12-13T11:29:17;42.10;;;23.67;;
8327;SDS011;4201;48.754;8.864;2022-12-13T11:31:48;118.80;;;45.60;;
8327;SDS011;4201;48.754;8.864;2022-12-13T11:34:22;56.27;;;27.63;;
8327;SDS011;4201;48.754;8.864;2022-12-13T11:36:51;55.87;;;27.73;;
8327;SDS011;4201;48.754;8.864;2022-12-13T11:39:23;38.77;;;20.90;;
8327;SDS011;4201;48.754;8.864;2022-12-13T11:41:52;40.97;;;21.17;;
8327;SDS011;4201;48.754;8.864;2022-12-13T11:44:24;34.30;;;20.03;;
8327;SDS011;4201;48.754;8.864;2022-12-13T11:46:53;32.20;;;20.20;;
8327;SDS011;4201;48.754;8.864;2022-12-13T11:49:21;34.60;;;20.10;;
8327;SDS011;4201;48.754;8.864;2022-12-13T11:51:55;36.20;;;20.83;;
8327;SDS011;4201;48.754;8.864;2022-12-13T11:54:23;39.73;;;21.87;;
8327;SDS011;4201;48.754;8.864;2022-12-13T11:56:51;37.53;;;20.23;;
8327;SDS011;4201;48.754;8.864;2022-12-13T11:59:22;36.27;;;22.63;;
8327;SDS011;4201;48.754;8.864;2022-12-13T12:01:52;36.03;;;21.50;;
8327;SDS011;4201;48.754;8.864;2022-12-13T12:04:20;34.23;;;20.50;;
8327;SDS011;4201;48.754;8.864;2022-12-13T12:06:49;39.73;;;21.83;;
8327;SDS011;4201;48.754;8.864;2022-12-13T12:09:18;35.67;;;21.37;;
8327;SDS011;4201;48.754;8.864;2022-12-13T12:11:47;35.83;;;20.27;;
8327;SDS011;4201;48.754;8.864;2022-12-13T12:14:17;35.00;;;19.93;;
8327;SDS011;4201;48.754;8.864;2022-12-13T12:16:46;36.33;;;20.83;;
8327;SDS011;4201;48.754;8.864;2022-12-13T12:19:18;45.10;;;23.37;;
8327;SDS011;4201;48.754;8.864;2022-12-13T12:21:49;59.37;;;32.30;;
8327;SDS011;4201;48.754;8.864;2022-12-13T12:24:20;40.67;;;22.47;;
8327;SDS011;4201;48.754;8.864;2022-12-13T12:26:52;65.90;;;35.70;;
8327;SDS011;4201;48.754;8.864;2022-12-13T12:29:26;35.97;;;21.23;;
8327;SDS011;4201;48.754;8.864;2022-12-13T12:31:58;34.93;;;22.13;;
8327;SDS011;4201;48.754;8.864;2022-12-13T12:34:32;43.80;;;22.87;;
8327;SDS011;4201;48.754;8.864;2022-12-13T12:37:03;38.03;;;20.37;;
8327;SDS011;4201;48.754;8.864;2022-12-13T12:39:34;39.33;;;21.47;;
8327;SDS011;4201;48.754;8.864;2022-12-13T12:42:21;39.67;;;21.03;;
8327;SDS011;4201;48.754;8.864;2022-12-13T12:44:56;38.87;;;21.27;;
8327;SDS011;4201;48.754;8.864;2022-12-13T12:47:28;39.47;;;21.87;;
8327;SDS011;4201;48.754;8.864;2022-12-13T12:52:43;31.83;;;18.73;;
8327;SDS011;4201;48.754;8.864;2022-12-13T12:55:14;39.87;;;21.30;;
8327;SDS011;4201;48.754;8.864;2022-12-13T12:57:45;35.40;;;21.47;;
8327;SDS011;4201;48.754;8.864;2022-12-13T13:00:16;33.20;;;18.93;;
8327;SDS011;4201;48.754;8.864;2022-12-13T13:02:45;32.23;;;18.93;;
8327;SDS011;4201;48.754;8.864;2022-12-13T13:05:14;35.57;;;20.43;;
8327;SDS011;4201;48.754;8.864;2022-12-13T13:07:45;41.17;;;21.30;;
8327;SDS011;4201;48.754;8.864;2022-12-13T13:10:14;35.57;;;21.27;;
8327;SDS011;4201;48.754;8.864;2022-12-13T13:12:41;41.90;;;20.83;;
8327;SDS011;4201;48.754;8.864;2022-12-13T13:17:49;37.87;;;21.30;;
8327;SDS011;4201;48.754;8.864;2022-12-13T13:20:19;43.57;;;21.80;;
8327;SDS011;4201;48.754;8.864;2022-12-13T13:22:48;35.13;;;19.63;;
8327;SDS011;4201;48.754;8.864;2022-12-13T13:25:21;40.97;;;20.00;;
8327;SDS011;4201;48.754;8.864;2022-12-13T13:27:49;36.23;;;19.03;;
8327;SDS011;4201;48.754;8.864;2022-12-13T13:30:17;31.33;;;17.70;;
8327;SDS011;4201;48.754;8.864;2022-12-13T13:32:45;34.70;;;19.10;;
8327;SDS011;4201;48.754;8.864;2022-12-13T13:38:24;30.03;;;19.40;;
8327;SDS011;4201;48.754;8.864;2022-12-13T13:40:52;31.40;;;16.60;;
8327;SDS011;4201;48.754;8.864;2022-12-13T13:43:26;25.37;;;15.90;;
8327;SDS011;4201;48.754;8.864;2022-12-13T13:45:54;29.53;;;17.87;;
8327;SDS011;4201;48.754;8.864;2022-12-13T13:48:23;34.33;;;18.87;;
8327;SDS011;4201;48.754;8.864;2022-12-13T13:54:09;41.13;;;19.80;;
8327;SDS011;4201;48.754;8.864;2022-12-13T13:59:50;30.83;;;17.77;;
8327;SDS011;4201;48.754;8.864;2022-12-13T14:05:33;39.70;;;18.10;;
8327;SDS011;4201;48.754;8.864;2022-12-13T14:08:20;33.50;;;18.20;;
8327;SDS011;4201;48.754;8.864;2022-12-13T14:10:59;46.10;;;20.33;;
8327;SDS011;4201;48.754;8.864;2022-12-13T14:13:46;40.37;;;18.33;;
8327;SDS011;4201;48.754;8.864;2022-12-13T14:16:43;38.13;;;22.10;;
8327;SDS011;4201;48.754;8.864;2022-12-13T14:22:13;42.67;;;22.10;;
8327;SDS011;4201;48.754;8.864;2022-12-13T14:24:44;39.80;;;20.47;;
8327;SDS011;4201;48.754;8.864;2022-12-13T14:27:18;37.70;;;19.17;;
8327;SDS011;4201;48.754;8.864;2022-12-13T14:29:47;33.03;;;19.87;;
8327;SDS011;4201;48.754;8.864;2022-12-13T14:32:17;30.40;;;17.17;;
8327;SDS011;4201;48.754;8.864;2022-12-13T14:34:44;38.27;;;20.77;;
8327;SDS011;4201;48.754;8.864;2022-12-13T14:37:18;35.20;;;19.27;;
8327;SDS011;4201;48.754;8.864;2022-12-13T14:39:45;36.57;;;20.70;;
8327;SDS011;4201;48.754;8.864;2022-12-13T14:42:19;40.43;;;20.20;;
8327;SDS011;4201;48.754;8.864;2022-12-13T14:44:45;35.43;;;19.67;;
8327;SDS011;4201;48.754;8.864;2022-12-13T14:47:12;42.50;;;20.17;;
8327;SDS011;4201;48.754;8.864;2022-12-13T14:49:40;41.20;;;19.20;;
8327;SDS011;4201;48.754;8.864;2022-12-13T14:52:07;35.50;;;20.73;;
8327;SDS011;4201;48.754;8.864;2022-12-13T14:54:36;35.13;;;18.93;;
8327;SDS011;4201;48.754;8.864;2022-12-13T14:57:12;40.00;;;19.27;;
8327;SDS011;4201;48.754;8.864;2022-12-13T14:59:44;34.30;;;19.20;;
8327;SDS011;4201;48.754;8.864;2022-12-13T15:02:12;38.77;;;20.63;;
8327;SDS011;4201;48.754;8.864;2022-12-13T15:04:39;32.70;;;18.60;;
8327;SDS011;4201;48.754;8.864;2022-12-13T15:07:06;39.10;;;20.50;;
8327;SDS011;4201;48.754;8.864;2022-12-13T15:09:36;30.60;;;17.67;;
8327;SDS011;4201;48.754;8.864;2022-12-13T15:12:07;35.30;;;18.07;;
8327;SDS011;4201;48.754;8.864;2022-12-13T15:14:34;32.27;;;18.67;;
8327;SDS011;4201;48.754;8.864;2022-12-13T15:17:02;33.60;;;18.50;;
8327;SDS011;4201;48.754;8.864;2022-12-13T15:19:28;39.40;;;19.90;;
8327;SDS011;4201;48.754;8.864;2022-12-13T15:21:55;37.03;;;21.40;;
8327;SDS011;4201;48.754;8.864;2022-12-13T15:24:23;46.57;;;19.27;;
8327;SDS011;4201;48.754;8.864;2022-12-13T15:26:50;28.70;;;17.87;;
8327;SDS011;4201;48.754;8.864;2022-12-13T15:29:17;37.50;;;18.90;;
8327;SDS011;4201;48.754;8.864;2022-12-13T15:31:46;48.20;;;24.07;;
8327;SDS011;4201;48.754;8.864;2022-12-13T15:34:21;35.27;;;20.07;;
8327;SDS011;4201;48.754;8.864;2022-12-13T15:36:48;39.40;;;19.90;;
8327;SDS011;4201;48.754;8.864;2022-12-13T15:39:14;35.67;;;19.00;;
8327;SDS011;4201;48.754;8.864;2022-12-13T15:41:43;34.27;;;20.83;;
8327;SDS011;4201;48.754;8.864;2022-12-13T15:44:14;31.67;;;18.60;;
8327;SDS011;4201;48.754;8.864;2022-12-13T15:46:43;37.70;;;21.73;;
8327;SDS011;4201;48.754;8.864;2022-12-13T15:49:18;32.33;;;21.13;;
8327;SDS011;4201;48.754;8.864;2022-12-13T15:51:54;42.53;;;22.53;;
8327;SDS011;4201;48.754;8.864;2022-12-13T15:54:21;31.90;;;18.83;;
8327;SDS011;4201;48.754;8.864;2022-12-13T15:56:58;34.87;;;19.10;;
8327;SDS011;4201;48.754;8.864;2022-12-13T15:59:26;30.03;;;17.67;;
8327;SDS011;4201;48.754;8.864;2022-12-13T16:01:52;38.17;;;19.60;;
8327;SDS011;4201;48.754;8.864;2022-12-13T16:04:20;36.80;;;21.10;;
8327;SDS011;4201;48.754;8.864;2022-12-13T16:06:47;30.40;;;17.70;;
8327;SDS011;4201;48.754;8.864;2022-12-13T16:09:15;32.00;;;19.47;;
8327;SDS011;4201;48.754;8.864;2022-12-13T16:11:46;33.53;;;19.80;;
8327;SDS011;4201;48.754;8.864;2022-12-13T16:14:31;32.83;;;19.90;;
8327;SDS011;4201;48.754;8.864;2022-12-13T16:16:59;38.73;;;18.87;;
8327;SDS011;4201;48.754;8.864;2022-12-13T16:19:27;33.30;;;17.90;;
8327;SDS011;4201;48.754;8.864;2022-12-13T16:21:53;32.80;;;17.53;;
8327;SDS011;4201;48.754;8.864;2022-12-13T16:24:21;38.57;;;19.77;;
8327;SDS011;4201;48.754;8.864;2022-12-13T16:26:47;28.93;;;17.23;;
8327;SDS011;4201;48.754;8.864;2022-12-13T16:29:14;29.53;;;17.80;;
8327;SDS011;4201;48.754;8.864;2022-12-13T16:31:43;38.40;;;18.93;;
8327;SDS011;4201;48.754;8.864;2022-12-13T16:34:10;42.10;;;23.27;;
8327;SDS011;4201;48.754;8.864;2022-12-13T16:36:36;40.17;;;22.13;;
8327;SDS011;4201;48.754;8.864;2022-12-13T16:39:03;50.17;;;25.43;;
8327;SDS011;4201;48.754;8.864;2022-12-13T16:41:33;44.53;;;23.50;;
8327;SDS011;4201;48.754;8.864;2022-12-13T16:44:00;37.00;;;21.00;;
8327;SDS011;4201;48.754;8.864;2022-12-13T16:46:27;33.20;;;20.17;;
8327;SDS011;4201;48.754;8.864;2022-12-13T16:48:54;30.80;;;20.47;;
8327;SDS011;4201;48.754;8.864;2022-12-13T16:51:20;38.27;;;23.40;;
8327;SDS011;4201;48.754;8.864;2022-12-13T16:53:47;38.90;;;21.03;;
8327;SDS011;4201;48.754;8.864;2022-12-13T16:56:14;45.63;;;25.70;;
8327;SDS011;4201;48.754;8.864;2022-12-13T16:58:47;38.80;;;21.73;;
8327;SDS011;4201;48.754;8.864;2022-12-13T17:01:14;43.00;;;22.30;;
8327;SDS011;4201;48.754;8.864;2022-12-13T17:03:42;48.43;;;24.80;;
8327;SDS011;4201;48.754;8.864;2022-12-13T17:06:09;46.17;;;23.40;;
8327;SDS011;4201;48.754;8.864;2022-12-13T17:08:36;43.10;;;23.77;;
8327;SDS011;4201;48.754;8.864;2022-12-13T17:11:02;38.43;;;21.97;;
8327;SDS011;4201;48.754;8.864;2022-12-13T17:13:28;42.70;;;21.40;;
8327;SDS011;4201;48.754;8.864;2022-12-13T17:15:57;34.50;;;19.90;;
8327;SDS011;4201;48.754;8.864;2022-12-13T17:18:23;39.53;;;19.27;;
8327;SDS011;4201;48.754;8.864;2022-12-13T17:20:49;32.23;;;19.17;;
8327;SDS011;4201;48.754;8.864;2022-12-13T17:23:16;41.17;;;20.20;;
8327;SDS011;4201;48.754;8.864;2022-12-13T17:25:42;37.57;;;20.40;;
8327;SDS011;4201;48.754;8.864;2022-12-13T17:28:08;35.80;;;20.53;;
8327;SDS011;4201;48.754;8.864;2022-12-13T17:30:34;42.17;;;22.07;;
8327;SDS011;4201;48.754;8.864;2022-12-13T17:33:02;36.73;;;20.13;;
8327;SDS011;4201;48.754;8.864;2022-12-13T17:35:31;38.70;;;22.10;;
8327;SDS011;4201;48.754;8.864;2022-12-13T17:37:58;35.90;;;21.70;;
8327;SDS011;4201;48.754;8.864;2022-12-13T17:40:24;33.43;;;21.87;;
8327;SDS011;4201;48.754;8.864;2022-12-13T17:42:52;35.40;;;21.43;;
8327;SDS011;4201;48.754;8.864;2022-12-13T17:45:28;32.50;;;19.63;;
8327;SDS011;4201;48.754;8.864;2022-12-13T17:47:54;38.77;;;21.43;;
8327;SDS011;4201;48.754;8.864;2022-12-13T17:50:22;44.23;;;22.90;;
8327;SDS011;4201;48.754;8.864;2022-12-13T17:52:49;44.63;;;24.73;;
8327;SDS011;4201;48.754;8.864;2022-12-13T17:55:15;40.17;;;22.77;;
8327;SDS011;4201;48.754;8.864;2022-12-13T17:57:42;38.83;;;22.37;;
8327;SDS011;4201;48.754;8.864;2022-12-13T18:00:09;60.70;;;30.33;;
8327;SDS011;4201;48.754;8.864;2022-12-13T18:02:36;53.90;;;29.67;;
8327;SDS011;4201;48.754;8.864;2022-12-13T18:05:03;58.67;;;30.43;;
8327;SDS011;4201;48.754;8.864;2022-12-13T18:07:31;41.67;;;26.50;;
8327;SDS011;4201;48.754;8.864;2022-12-13T18:09:57;46.63;;;24.97;;
8327;SDS011;4201;48.754;8.864;2022-12-13T18:12:24;44.67;;;23.37;;
8327;SDS011;4201;48.754;8.864;2022-12-13T18:14:50;51.33;;;24.43;;
8327;SDS011;4201;48.754;8.864;2022-12-13T18:17:16;44.47;;;26.17;;
8327;SDS011;4201;48.754;8.864;2022-12-13T18:19:43;47.37;;;26.67;;
8327;SDS011;4201;48.754;8.864;2022-12-13T18:22:09;50.40;;;25.87;;
8327;SDS011;4201;48.754;8.864;2022-12-13T18:24:37;44.03;;;24.97;;
8327;SDS011;4201;48.754;8.864;2022-12-13T18:27:03;55.87;;;25.90;;
8327;SDS011;4201;48.754;8.864;2022-12-13T18:29:29;40.17;;;22.10;;
8327;SDS011;4201;48.754;8.864;2022-12-13T18:31:56;38.50;;;22.00;;
8327;SDS011;4201;48.754;8.864;2022-12-13T18:34:22;39.97;;;24.50;;
8327;SDS011;4201;48.754;8.864;2022-12-13T18:36:48;46.87;;;23.70;;
8327;SDS011;4201;48.754;8.864;2022-12-13T18:39:15;39.17;;;20.33;;
8327;SDS011;4201;48.754;8.864;2022-12-13T18:41:42;31.90;;;19.03;;
8327;SDS011;4201;48.754;8.864;2022-12-13T18:44:08;32.63;;;17.30;;
8327;SDS011;4201;48.754;8.864;2022-12-13T18:46:37;39.93;;;18.27;;
8327;SDS011;4201;48.754;8.864;2022-12-13T18:49:04;35.30;;;19.40;;
8327;SDS011;4201;48.754;8.864;2022-12-13T18:51:30;34.97;;;18.70;;
8327;SDS011;4201;48.754;8.864;2022-12-13T18:53:57;39.50;;;19.87;;
8327;SDS011;4201;48.754;8.864;2022-12-13T18:56:23;36.40;;;19.40;;
8327;SDS011;4201;48.754;8.864;2022-12-13T18:58:51;34.33;;;20.07;;